Time;durP1;ratioP1;P1;durP2;ratioP2;P2;SDS_P1;SDS_P2;PMS_P1;PMS_P2;Temp;Humidity;BMP_temperature;BMP_pressure;BME280_temperature;BME280_humidity;BME280_pressure;Samples;Min_cycle;Max_cycle;Signal;HPM_P1;HPM_P2
2023/07/30 00:01:03;;;;;;;4.53;3.23;;;16.70;99.90;;;;;;4225919;28;20232;-74
2023/07/30 00:03:04;;;;;;;5.30;2.90;;;16.70;99.90;;;;;;4231511;28;20219;-74
2023/07/30 00:05:06;;;;;;;4.17;2.87;;;16.70;99.90;;;;;;4227768;28;20206;-74
2023/07/30 00:07:08;;;;;;;4.47;3.27;;;16.70;99.90;;;;;;4224973;28;20232;-74
2023/07/30 00:09:10;;;;;;;5.00;2.83;;;16.60;99.90;;;;;;4216862;28;20211;-74
2023/07/30 00:11:12;;;;;;;5.33;3.10;;;16.60;99.90;;;;;;4218608;28;20316;-74
2023/07/30 00:13:16;;;;;;;5.13;2.90;;;16.60;99.90;;;;;;4228681;28;20205;-74
2023/07/30 00:15:18;;;;;;;6.43;3.10;;;16.60;99.90;;;;;;4224035;28;20805;-74
2023/07/30 00:17:20;;;;;;;5.73;3.20;;;16.60;99.90;;;;;;4227763;28;20241;-74
2023/07/30 00:19:21;;;;;;;4.63;3.30;;;16.60;99.90;;;;;;4230215;28;20247;-74
2023/07/30 00:21:23;;;;;;;5.97;3.30;;;16.60;99.90;;;;;;4224082;28;20570;-74
2023/07/30 00:23:24;;;;;;;6.03;3.40;;;16.60;99.90;;;;;;4220789;28;20236;-74
2023/07/30 00:25:26;;;;;;;8.30;3.23;;;16.60;99.90;;;;;;4216534;28;20220;-75
2023/07/30 00:27:28;;;;;;;4.87;3.00;;;16.60;99.90;;;;;;4220254;28;20232;-74
2023/07/30 00:29:31;;;;;;;7.47;3.03;;;16.60;99.90;;;;;;4227215;28;20213;-74
2023/07/30 00:31:33;;;;;;;7.13;3.37;;;16.60;99.90;;;;;;4218038;28;20229;-74
2023/07/30 00:33:35;;;;;;;4.47;3.33;;;16.60;99.90;;;;;;4219444;28;20247;-75
2023/07/30 00:35:37;;;;;;;5.07;3.13;;;16.60;99.90;;;;;;4215849;28;20213;-74
2023/07/30 00:37:39;;;;;;;5.17;3.10;;;16.50;99.90;;;;;;4220873;28;20671;-74
2023/07/30 00:39:41;;;;;;;6.20;3.40;;;16.50;99.90;;;;;;4223451;28;20581;-74
2023/07/30 00:41:42;;;;;;;4.27;2.93;;;16.50;99.90;;;;;;4221929;28;20299;-74
2023/07/30 00:43:45;;;;;;;4.93;3.00;;;16.50;99.90;;;;;;4221876;28;20803;-74
2023/07/30 00:45:48;;;;;;;4.90;3.10;;;16.50;99.90;;;;;;4218808;28;20270;-74
2023/07/30 00:47:50;;;;;;;7.50;3.23;;;16.50;99.90;;;;;;4216780;28;20301;-74
2023/07/30 00:49:52;;;;;;;4.17;2.97;;;16.50;99.90;;;;;;4224528;28;20297;-74
2023/07/30 00:51:56;;;;;;;3.83;2.80;;;16.50;99.90;;;;;;4221149;28;20213;-75
2023/07/30 00:53:58;;;;;;;5.33;3.20;;;16.40;99.90;;;;;;4213724;28;20221;-75
2023/07/30 00:56:00;;;;;;;5.17;2.60;;;16.40;99.90;;;;;;4223827;28;20320;-74
2023/07/30 00:58:03;;;;;;;4.10;2.80;;;16.40;99.90;;;;;;4223129;28;20215;-74
2023/07/30 01:00:08;;;;;;;4.10;2.80;;;16.40;99.90;;;;;;4222549;28;20219;-76
2023/07/30 01:02:12;;;;;;;5.70;2.87;;;16.40;99.90;;;;;;4217784;28;20273;-74
2023/07/30 01:04:15;;;;;;;5.60;3.03;;;16.40;99.90;;;;;;4220748;28;20296;-75
2023/07/30 01:06:17;;;;;;;5.13;3.03;;;16.40;99.90;;;;;;4224851;28;20259;-75
2023/07/30 01:08:19;;;;;;;3.37;2.53;;;16.40;99.90;;;;;;4227780;28;20220;-77
2023/07/30 01:10:22;;;;;;;5.33;2.60;;;16.40;99.90;;;;;;4227566;28;20225;-74
2023/07/30 01:12:24;;;;;;;5.40;3.23;;;16.40;99.90;;;;;;4225325;28;20308;-74
2023/07/30 01:14:27;;;;;;;5.13;3.00;;;16.30;99.90;;;;;;4225174;28;20201;-74
2023/07/30 01:16:28;;;;;;;6.13;2.70;;;16.30;99.90;;;;;;4248616;22;20323;-75
2023/07/30 01:18:31;;;;;;;3.27;2.80;;;16.30;99.90;;;;;;4236543;28;20217;-75
2023/07/30 01:20:33;;;;;;;5.07;2.90;;;16.30;99.90;;;;;;4235662;28;20209;-75
2023/07/30 01:22:37;;;;;;;4.77;2.93;;;16.30;99.90;;;;;;4237025;28;20227;-75
2023/07/30 01:24:38;;;;;;;3.67;2.77;;;16.30;99.90;;;;;;4241095;28;20670;-75
2023/07/30 01:26:44;;;;;;;4.77;2.70;;;16.30;99.90;;;;;;4234692;28;20264;-75
2023/07/30 01:28:49;;;;;;;4.50;3.20;;;16.30;99.90;;;;;;4236839;28;20208;-75
2023/07/30 01:30:52;;;;;;;4.07;3.00;;;16.30;99.90;;;;;;4239745;28;20800;-74
2023/07/30 01:32:55;;;;;;;9.27;3.27;;;16.30;99.90;;;;;;4236765;28;20745;-75
2023/07/30 01:34:58;;;;;;;3.33;2.60;;;16.40;99.90;;;;;;4237678;28;20297;-75
2023/07/30 01:37:01;;;;;;;3.97;2.90;;;16.30;99.90;;;;;;4236973;28;20238;-75
2023/07/30 01:39:05;;;;;;;3.93;2.63;;;16.30;99.90;;;;;;4239146;28;20214;-75
2023/07/30 01:41:07;;;;;;;4.00;2.80;;;16.30;99.90;;;;;;4235857;28;20649;-75
2023/07/30 01:43:09;;;;;;;3.97;2.83;;;16.30;99.90;;;;;;4239429;28;20263;-75
2023/07/30 01:45:11;;;;;;;3.20;2.63;;;16.30;99.90;;;;;;4240997;28;20228;-75
2023/07/30 01:47:13;;;;;;;6.50;2.90;;;16.30;99.90;;;;;;4238133;28;20692;-75
2023/07/30 01:49:15;;;;;;;3.63;2.47;;;16.30;99.90;;;;;;4239872;28;20232;-75
2023/07/30 01:51:16;;;;;;;4.03;2.90;;;16.30;99.90;;;;;;4232508;28;20320;-75
2023/07/30 01:53:18;;;;;;;5.47;2.77;;;16.30;99.90;;;;;;4242160;28;20209;-75
2023/07/30 01:55:22;;;;;;;4.17;2.70;;;16.30;99.90;;;;;;4232894;28;20308;-75
2023/07/30 01:57:24;;;;;;;4.10;2.87;;;16.40;99.90;;;;;;4236890;28;20565;-75
2023/07/30 01:59:25;;;;;;;5.23;2.90;;;16.40;99.90;;;;;;4238806;28;20251;-75
2023/07/30 02:01:27;;;;;;;5.47;2.90;;;16.40;99.90;;;;;;4238379;28;20248;-75
2023/07/30 02:03:31;;;;;;;5.67;3.03;;;16.30;99.90;;;;;;4240274;28;20295;-75
2023/07/30 02:05:33;;;;;;;7.33;2.97;;;16.40;99.90;;;;;;4237379;28;20199;-75
2023/07/30 02:07:35;;;;;;;3.97;2.60;;;16.40;99.90;;;;;;4243103;28;20220;-76
2023/07/30 02:09:37;;;;;;;3.90;2.70;;;16.30;99.90;;;;;;4239507;28;20268;-75
2023/07/30 02:11:40;;;;;;;5.17;3.10;;;16.30;99.90;;;;;;4240783;28;20234;-75
2023/07/30 02:13:42;;;;;;;4.77;2.80;;;16.40;99.90;;;;;;4241363;28;20295;-75
2023/07/30 02:15:44;;;;;;;3.80;2.73;;;16.40;99.90;;;;;;4201910;27;1106049;-75
2023/07/30 02:17:45;;;;;;;4.07;2.17;;;16.40;99.90;;;;;;4234029;27;20732;-75
2023/07/30 02:19:47;;;;;;;4.60;2.80;;;16.40;99.90;;;;;;4240310;27;20226;-75
2023/07/30 02:21:49;;;;;;;5.50;2.63;;;16.40;99.90;;;;;;4238714;27;20211;-75
2023/07/30 02:23:51;;;;;;;4.00;2.57;;;16.40;99.90;;;;;;4236799;27;20313;-75
2023/07/30 02:25:52;;;;;;;5.70;2.67;;;16.30;99.90;;;;;;4237927;27;20323;-75
2023/07/30 02:27:55;;;;;;;5.37;2.90;;;16.30;99.90;;;;;;4236901;27;20209;-75
2023/07/30 02:29:58;;;;;;;3.50;2.80;;;16.40;99.90;;;;;;4239047;27;20206;-75
2023/07/30 02:32:00;;;;;;;5.90;2.90;;;16.30;99.90;;;;;;4239056;27;20224;-75
2023/07/30 02:34:01;;;;;;;5.40;2.73;;;16.40;99.90;;;;;;4233600;27;20235;-75
2023/07/30 02:36:04;;;;;;;3.30;2.90;;;16.40;99.90;;;;;;4238211;27;20628;-75
2023/07/30 02:38:06;;;;;;;3.43;2.50;;;16.40;99.90;;;;;;4232875;27;20224;-75
2023/07/30 02:40:09;;;;;;;3.23;2.63;;;16.40;99.90;;;;;;4242586;27;20305;-75
2023/07/30 02:42:11;;;;;;;5.67;2.83;;;16.40;99.90;;;;;;4235234;27;20838;-75
2023/07/30 02:44:14;;;;;;;4.00;2.50;;;16.40;99.90;;;;;;4237823;27;20258;-75
2023/07/30 02:46:16;;;;;;;4.00;2.60;;;16.40;99.90;;;;;;4234185;27;20317;-74
2023/07/30 02:48:16;;;;;;;6.47;2.83;;;16.40;99.90;;;;;;4236345;27;20771;-75
2023/07/30 02:50:19;;;;;;;5.23;2.60;;;16.40;99.90;;;;;;4243793;27;20208;-75
2023/07/30 02:52:20;;;;;;;3.73;2.60;;;16.50;99.90;;;;;;4232514;27;20228;-76
2023/07/30 02:54:22;;;;;;;5.77;3.07;;;16.50;99.90;;;;;;4236606;27;20232;-75
2023/07/30 02:56:24;;;;;;;4.50;2.73;;;16.40;99.90;;;;;;4239148;27;20260;-75
2023/07/30 02:58:25;;;;;;;3.10;2.40;;;16.50;99.90;;;;;;4237775;27;20812;-75
2023/07/30 03:00:29;;;;;;;3.67;2.87;;;16.50;99.90;;;;;;4239635;27;20207;-75
2023/07/30 03:02:30;;;;;;;3.67;2.50;;;16.50;99.90;;;;;;4233301;27;20204;-75
2023/07/30 03:04:32;;;;;;;3.50;2.77;;;16.50;99.90;;;;;;4236639;27;20217;-74
2023/07/30 03:06:34;;;;;;;4.30;2.57;;;16.50;99.90;;;;;;4242551;27;20232;-75
2023/07/30 03:08:36;;;;;;;3.33;2.57;;;16.50;99.90;;;;;;4239793;27;20670;-75
2023/07/30 03:10:38;;;;;;;4.97;3.17;;;16.50;99.90;;;;;;4239708;27;20209;-75
2023/07/30 03:12:40;;;;;;;4.00;2.73;;;16.50;99.90;;;;;;4234153;27;20213;-75
2023/07/30 03:14:41;;;;;;;4.17;2.80;;;16.50;99.90;;;;;;4236071;27;20300;-75
2023/07/30 03:16:44;;;;;;;4.77;2.80;;;16.50;99.90;;;;;;4238388;27;20234;-74
2023/07/30 03:18:46;;;;;;;4.60;3.00;;;16.50;99.90;;;;;;4241082;27;20297;-75
2023/07/30 03:20:48;;;;;;;3.97;2.60;;;16.50;99.90;;;;;;4233405;27;20247;-77
2023/07/30 03:22:50;;;;;;;6.40;2.80;;;16.50;99.90;;;;;;4233722;27;20339;-77
2023/07/30 03:24:52;;;;;;;6.13;2.90;;;16.50;99.90;;;;;;4234467;27;20208;-77
2023/07/30 03:26:54;;;;;;;5.23;2.60;;;16.50;99.90;;;;;;4238893;27;20235;-77
2023/07/30 03:28:56;;;;;;;3.27;2.43;;;16.60;99.90;;;;;;4236500;27;20307;-77
2023/07/30 03:30:57;;;;;;;5.63;2.90;;;16.60;99.90;;;;;;4238113;27;20649;-77
2023/07/30 03:33:01;;;;;;;4.90;2.70;;;16.60;99.90;;;;;;4235017;27;20213;-77
2023/07/30 03:35:03;;;;;;;4.23;2.97;;;16.60;99.90;;;;;;4243184;27;20235;-77
2023/07/30 03:37:06;;;;;;;6.60;2.77;;;16.60;99.90;;;;;;4237513;27;20273;-77
2023/07/30 03:39:08;;;;;;;6.27;2.90;;;16.50;99.90;;;;;;4236584;27;20204;-77
2023/07/30 03:41:11;;;;;;;5.63;3.00;;;16.60;99.90;;;;;;4240114;27;20815;-77
2023/07/30 03:43:13;;;;;;;5.00;2.80;;;16.60;99.90;;;;;;4236405;27;20205;-77
2023/07/30 03:45:15;;;;;;;5.27;2.90;;;16.60;99.90;;;;;;4236076;27;20219;-77
2023/07/30 03:47:16;;;;;;;3.83;2.70;;;16.60;99.90;;;;;;4231398;27;20231;-77
2023/07/30 03:49:20;;;;;;;5.03;3.10;;;16.60;99.90;;;;;;4234464;27;20211;-77
2023/07/30 03:51:21;;;;;;;4.20;2.67;;;16.50;99.90;;;;;;4236477;27;20225;-77
2023/07/30 03:53:23;;;;;;;6.30;2.80;;;16.60;99.90;;;;;;4236192;27;20214;-77
2023/07/30 03:55:25;;;;;;;4.87;2.80;;;16.60;99.90;;;;;;4238184;27;20585;-77
2023/07/30 03:57:27;;;;;;;4.13;2.47;;;16.60;99.90;;;;;;4233430;27;21057;-77
2023/07/30 03:59:29;;;;;;;2.87;2.50;;;16.60;99.90;;;;;;4236131;27;20210;-77
2023/07/30 04:01:31;;;;;;;3.17;2.73;;;16.60;99.90;;;;;;4235728;27;20204;-77
2023/07/30 04:03:33;;;;;;;3.70;2.70;;;16.60;99.90;;;;;;4237816;27;20239;-77
2023/07/30 04:05:36;;;;;;;4.33;2.80;;;16.60;99.90;;;;;;4237053;27;20605;-77
2023/07/30 04:07:38;;;;;;;3.77;2.70;;;16.60;99.90;;;;;;4234193;27;21160;-77
2023/07/30 04:09:40;;;;;;;2.93;2.40;;;16.70;99.90;;;;;;4238037;27;20297;-77
2023/07/30 04:11:41;;;;;;;3.47;2.50;;;16.70;99.90;;;;;;4236132;27;20231;-77
2023/07/30 04:13:43;;;;;;;2.60;2.40;;;16.60;99.90;;;;;;4236506;27;20633;-77
2023/07/30 04:15:54;;;;;;;3.83;2.70;;;16.70;99.90;;;;;;4234287;27;20315;-77
2023/07/30 04:17:56;;;;;;;4.37;2.70;;;16.70;99.90;;;;;;4230322;27;20208;-77
2023/07/30 04:19:57;;;;;;;3.63;2.30;;;16.70;99.90;;;;;;4238955;27;20307;-76
2023/07/30 04:22:01;;;;;;;4.23;2.80;;;16.70;99.90;;;;;;4236341;27;20300;-77
2023/07/30 04:24:03;;;;;;;3.97;2.53;;;16.80;99.90;;;;;;4241435;27;20641;-77
2023/07/30 04:26:04;;;;;;;3.67;2.67;;;16.80;99.90;;;;;;4235545;27;20315;-77
2023/07/30 04:28:05;;;;;;;3.73;2.53;;;16.80;99.90;;;;;;4239570;27;20233;-77
2023/07/30 04:30:08;;;;;;;4.40;2.50;;;16.80;99.90;;;;;;4238602;27;20205;-77
2023/07/30 04:32:09;;;;;;;3.03;2.60;;;16.80;99.90;;;;;;4239418;27;20627;-77
2023/07/30 04:34:11;;;;;;;3.37;2.70;;;16.80;99.90;;;;;;4235680;27;20203;-77
2023/07/30 04:36:13;;;;;;;10.00;3.00;;;16.80;99.90;;;;;;4235683;27;20265;-77
2023/07/30 04:38:16;;;;;;;4.53;3.17;;;16.90;99.90;;;;;;4237019;27;20228;-77
2023/07/30 04:40:19;;;;;;;4.33;2.80;;;16.80;99.90;;;;;;4239502;27;20556;-77
2023/07/30 04:42:21;;;;;;;5.10;2.93;;;16.80;99.90;;;;;;4233418;27;20230;-77
2023/07/30 04:44:23;;;;;;;5.43;2.93;;;16.80;99.90;;;;;;4236930;27;20304;-77
2023/07/30 04:46:25;;;;;;;4.10;3.10;;;16.80;99.90;;;;;;4236255;27;20228;-77
2023/07/30 04:48:27;;;;;;;3.60;2.53;;;16.80;99.90;;;;;;4235700;27;20217;-77
2023/07/30 04:50:31;;;;;;;3.63;2.80;;;16.90;99.90;;;;;;4234387;28;20214;-77
2023/07/30 04:52:33;;;;;;;4.03;2.67;;;16.90;99.90;;;;;;4235972;28;20272;-77
2023/07/30 04:54:37;;;;;;;4.40;2.73;;;16.90;99.90;;;;;;4233146;28;20234;-77
2023/07/30 04:56:39;;;;;;;4.47;2.90;;;16.90;99.90;;;;;;4236508;28;20231;-76
2023/07/30 04:58:41;;;;;;;6.20;3.17;;;16.90;99.90;;;;;;4240109;28;20249;-77
2023/07/30 05:00:44;;;;;;;4.37;2.57;;;17.00;99.90;;;;;;4235969;28;20255;-77
2023/07/30 05:02:46;;;;;;;5.10;2.73;;;17.00;99.90;;;;;;4239892;28;20284;-77
2023/07/30 05:04:48;;;;;;;6.83;3.07;;;17.00;99.90;;;;;;4237487;28;20217;-77
2023/07/30 05:06:50;;;;;;;8.13;2.90;;;17.00;99.90;;;;;;4244202;28;20239;-77
2023/07/30 05:08:52;;;;;;;3.57;2.80;;;17.00;99.90;;;;;;4235433;28;20288;-76
2023/07/30 05:10:55;;;;;;;4.00;2.90;;;17.00;99.90;;;;;;4242450;28;20202;-77
2023/07/30 05:12:57;;;;;;;7.17;2.67;;;16.90;99.90;;;;;;4231623;28;20224;-77
2023/07/30 05:14:59;;;;;;;5.57;2.90;;;17.00;99.90;;;;;;4239744;28;20248;-77
2023/07/30 05:17:01;;;;;;;9.03;3.53;;;17.00;99.90;;;;;;4236873;28;20324;-77
2023/07/30 05:19:05;;;;;;;6.20;3.07;;;16.90;99.90;;;;;;4237637;28;20266;-77
2023/07/30 05:21:07;;;;;;;4.40;3.13;;;17.00;99.90;;;;;;4242740;28;20723;-77
2023/07/30 05:23:11;;;;;;;4.57;2.93;;;17.00;99.90;;;;;;4237457;28;20210;-77
2023/07/30 05:25:12;;;;;;;6.33;3.10;;;17.00;99.90;;;;;;4236115;28;20219;-77
2023/07/30 05:27:15;;;;;;;4.43;2.97;;;17.10;99.90;;;;;;4235308;28;20262;-77
2023/07/30 05:29:17;;;;;;;6.87;3.33;;;17.10;99.90;;;;;;4239417;28;20214;-77
2023/07/30 05:31:21;;;;;;;6.53;3.13;;;17.10;99.90;;;;;;4233093;28;20208;-77
2023/07/30 05:33:23;;;;;;;6.77;3.20;;;17.10;99.90;;;;;;4236533;28;20721;-77
2023/07/30 05:35:25;;;;;;;5.17;3.00;;;17.10;99.90;;;;;;4236863;28;20234;-76
2023/07/30 05:37:27;;;;;;;3.97;2.67;;;17.10;99.90;;;;;;4231859;28;20297;-77
2023/07/30 05:39:29;;;;;;;5.53;3.03;;;17.10;99.90;;;;;;4237965;28;20242;-77
2023/07/30 05:41:33;;;;;;;5.37;3.40;;;17.10;99.90;;;;;;4239917;28;20220;-77
2023/07/30 05:43:37;;;;;;;5.13;2.97;;;17.20;99.90;;;;;;4235417;28;20249;-77
2023/07/30 05:45:38;;;;;;;7.70;3.53;;;17.20;99.90;;;;;;4237431;28;20239;-77
2023/07/30 05:47:40;;;;;;;7.53;3.03;;;17.20;99.90;;;;;;4239084;28;20205;-77
2023/07/30 05:49:42;;;;;;;7.13;3.10;;;17.30;99.90;;;;;;4241035;28;20305;-77
2023/07/30 05:51:43;;;;;;;8.07;3.00;;;17.30;99.90;;;;;;4240017;28;20213;-77
2023/07/30 05:53:45;;;;;;;5.27;2.80;;;17.40;99.90;;;;;;4230211;28;20297;-77
2023/07/30 05:55:49;;;;;;;4.37;2.70;;;17.40;99.90;;;;;;4233121;27;20302;-77
2023/07/30 05:57:53;;;;;;;9.07;3.40;;;17.40;99.90;;;;;;4236497;27;20246;-77
2023/07/30 05:59:56;;;;;;;5.20;2.80;;;17.50;99.90;;;;;;4240135;27;20737;-77
2023/07/30 06:02:02;;;;;;;7.03;3.47;;;17.50;99.90;;;;;;4236176;27;20280;-77
2023/07/30 06:04:04;;;;;;;6.60;3.10;;;17.60;99.90;;;;;;4239962;27;20575;-77
2023/07/30 06:06:06;;;;;;;6.30;3.07;;;17.80;99.90;;;;;;4239908;27;20667;-77
2023/07/30 06:08:08;;;;;;;7.47;3.50;;;17.90;99.90;;;;;;4238642;27;20294;-77
2023/07/30 06:10:10;;;;;;;6.67;2.80;;;18.00;99.90;;;;;;4240498;27;20207;-77
2023/07/30 06:12:12;;;;;;;4.60;3.00;;;18.10;99.90;;;;;;4240361;27;20234;-77
2023/07/30 06:14:14;;;;;;;6.07;3.10;;;18.20;99.90;;;;;;4238107;27;20758;-77
2023/07/30 06:16:19;;;;;;;4.10;2.97;;;18.20;99.90;;;;;;4235298;27;20735;-77
2023/07/30 06:18:21;;;;;;;3.53;2.60;;;18.30;99.90;;;;;;4237831;27;20206;-77
2023/07/30 06:20:23;;;;;;;4.63;2.50;;;18.40;99.90;;;;;;4240312;27;20639;-77
2023/07/30 06:22:24;;;;;;;6.10;2.83;;;18.40;99.90;;;;;;4234180;27;20621;-77
2023/07/30 06:24:26;;;;;;;4.23;2.73;;;18.40;99.90;;;;;;4235921;27;20198;-77
2023/07/30 06:26:28;;;;;;;7.20;2.70;;;18.40;99.90;;;;;;4233343;27;20294;-77
2023/07/30 06:28:29;;;;;;;4.17;2.53;;;18.40;99.90;;;;;;4242381;27;20597;-77
2023/07/30 06:30:31;;;;;;;4.03;2.50;;;18.40;99.90;;;;;;4238343;27;20221;-77
2023/07/30 06:32:34;;;;;;;3.90;2.50;;;18.30;99.90;;;;;;4237846;27;20231;-77
2023/07/30 06:34:36;;;;;;;5.30;2.73;;;18.30;99.90;;;;;;4241108;27;20657;-77
2023/07/30 06:36:38;;;;;;;7.00;2.30;;;18.30;99.90;;;;;;4239637;27;20280;-77
2023/07/30 06:38:40;;;;;;;3.80;2.47;;;18.40;99.90;;;;;;4240011;27;20208;-77
2023/07/30 06:40:41;;;;;;;3.70;2.53;;;18.40;99.90;;;;;;4240063;27;20302;-77
2023/07/30 06:42:43;;;;;;;4.63;3.00;;;18.60;99.90;;;;;;4239020;27;20208;-77
2023/07/30 06:44:45;;;;;;;5.97;3.23;;;18.60;99.90;;;;;;4233369;27;20219;-77
2023/07/30 06:46:47;;;;;;;4.13;3.07;;;18.70;99.90;;;;;;4240067;27;20226;-77
2023/07/30 06:48:50;;;;;;;4.57;3.00;;;18.70;99.90;;;;;;4238725;27;20314;-76
2023/07/30 06:50:53;;;;;;;4.57;3.57;;;18.70;99.90;;;;;;4235371;27;20636;-77
2023/07/30 06:52:53;;;;;;;5.43;3.60;;;18.80;99.90;;;;;;4239273;27;20223;-77
2023/07/30 06:54:56;;;;;;;7.00;3.40;;;18.80;99.90;;;;;;4237732;27;20223;-77
2023/07/30 06:56:58;;;;;;;3.20;2.90;;;18.80;99.90;;;;;;4240507;27;20239;-77
2023/07/30 06:59:00;;;;;;;9.93;4.50;;;18.90;99.90;;;;;;4237957;27;20224;-77
2023/07/30 07:01:02;;;;;;;6.00;4.20;;;18.90;99.90;;;;;;4238399;27;20298;-76
2023/07/30 07:03:04;;;;;;;4.13;3.10;;;19.00;99.90;;;;;;4243687;27;20233;-77
2023/07/30 07:05:07;;;;;;;4.30;3.17;;;19.10;99.90;;;;;;4238124;27;20208;-77
2023/07/30 07:07:09;;;;;;;6.03;3.23;;;19.10;99.90;;;;;;4234660;27;20228;-77
2023/07/30 07:09:11;;;;;;;5.97;3.27;;;19.20;99.90;;;;;;4238569;27;20228;-77
2023/07/30 07:11:13;;;;;;;6.10;2.80;;;19.30;99.90;;;;;;4249780;27;20219;-76
2023/07/30 07:13:15;;;;;;;6.13;3.00;;;19.30;99.90;;;;;;4247501;27;20315;-76
2023/07/30 07:15:17;;;;;;;5.47;3.13;;;19.40;99.90;;;;;;4247791;27;20211;-75
2023/07/30 07:17:19;;;;;;;6.10;3.10;;;19.40;99.90;;;;;;4245668;27;20231;-75
2023/07/30 07:19:21;;;;;;;3.53;2.60;;;19.40;99.90;;;;;;4238054;27;20222;-75
2023/07/30 07:21:26;;;;;;;4.07;2.97;;;19.40;99.90;;;;;;4241857;27;20276;-76
2023/07/30 07:23:28;;;;;;;4.33;3.00;;;19.40;99.90;;;;;;4240839;27;20216;-75
2023/07/30 07:25:30;;;;;;;5.30;2.90;;;19.50;99.90;;;;;;4236540;27;20304;-75
2023/07/30 07:27:30;;;;;;;4.73;2.30;;;19.50;99.90;;;;;;4238097;27;20232;-76
2023/07/30 07:29:32;;;;;;;4.30;2.60;;;19.50;99.90;;;;;;4236737;27;20645;-75
2023/07/30 07:31:34;;;;;;;8.80;3.00;;;19.50;99.90;;;;;;4240446;27;20210;-75
2023/07/30 07:33:37;;;;;;;7.93;2.80;;;19.60;99.90;;;;;;4236191;27;20229;-75
2023/07/30 07:35:39;;;;;;;6.23;2.53;;;19.60;99.90;;;;;;4234641;27;20204;-75
2023/07/30 07:37:42;;;;;;;5.60;2.63;;;19.70;99.90;;;;;;4240203;27;20240;-76
2023/07/30 07:39:43;;;;;;;3.23;2.60;;;19.80;99.90;;;;;;4234854;27;20226;-76
2023/07/30 07:41:45;;;;;;;4.40;2.50;;;19.90;99.90;;;;;;4237138;27;20209;-75
2023/07/30 07:43:48;;;;;;;3.27;2.27;;;19.90;99.90;;;;;;4238119;27;20299;-75
2023/07/30 07:45:50;;;;;;;3.17;2.30;;;20.00;99.90;;;;;;4239406;27;20225;-75
2023/07/30 07:47:51;;;;;;;4.23;2.13;;;20.10;99.90;;;;;;4239313;27;20214;-76
2023/07/30 07:49:53;;;;;;;3.83;2.33;;;20.20;99.90;;;;;;4239750;27;20291;-77
2023/07/30 07:51:55;;;;;;;6.77;2.67;;;20.20;99.90;;;;;;4235485;27;20212;-78
2023/07/30 07:53:59;;;;;;;4.50;2.90;;;20.40;99.90;;;;;;4235493;27;20243;-75
2023/07/30 07:55:59;;;;;;;5.60;3.10;;;20.50;99.90;;;;;;4234533;27;20253;-76
2023/07/30 07:58:01;;;;;;;4.50;2.77;;;20.60;99.90;;;;;;4235023;27;20203;-76
2023/07/30 08:00:05;;;;;;;4.20;2.63;;;20.80;99.90;;;;;;4234692;27;20211;-76
2023/07/30 08:02:07;;;;;;;5.23;2.73;;;20.90;99.90;;;;;;4237479;27;20243;-76
2023/07/30 08:04:08;;;;;;;4.60;2.50;;;21.00;99.90;;;;;;4236629;27;20566;-77
2023/07/30 08:06:10;;;;;;;5.87;2.50;;;21.10;99.90;;;;;;4238095;27;20229;-74
2023/07/30 08:08:11;;;;;;;5.07;2.60;;;21.10;99.90;;;;;;4236112;27;20212;-74
2023/07/30 08:10:15;;;;;;;4.07;2.33;;;21.20;99.90;;;;;;4238382;27;20288;-75
2023/07/30 08:12:17;;;;;;;3.70;2.27;;;21.30;99.90;;;;;;4232688;27;20222;-75
2023/07/30 08:14:18;;;;;;;4.43;2.40;;;21.40;99.90;;;;;;4235349;27;21190;-76
2023/07/30 08:16:20;;;;;;;4.93;2.37;;;21.50;99.90;;;;;;4236107;27;20239;-76
2023/07/30 08:18:22;;;;;;;5.90;2.30;;;21.50;99.90;;;;;;4236719;27;20301;-78
2023/07/30 08:20:24;;;;;;;5.23;2.43;;;21.60;99.90;;;;;;4235247;27;20235;-75
2023/07/30 08:22:26;;;;;;;3.10;2.13;;;21.60;99.90;;;;;;4236066;27;20213;-75
2023/07/30 08:24:28;;;;;;;4.13;2.30;;;21.70;99.90;;;;;;4237980;27;20664;-76
2023/07/30 08:26:32;;;;;;;4.97;2.50;;;21.70;99.90;;;;;;4237150;27;20234;-77
2023/07/30 08:28:34;;;;;;;3.37;2.70;;;21.70;99.90;;;;;;4235626;27;20211;-77
2023/07/30 08:30:36;;;;;;;5.93;2.70;;;21.70;99.90;;;;;;4238509;27;20271;-76
2023/07/30 08:32:38;;;;;;;4.73;2.67;;;21.70;99.90;;;;;;4235196;27;20739;-76
2023/07/30 08:34:40;;;;;;;4.43;2.80;;;21.60;99.90;;;;;;4240789;27;20214;-76
2023/07/30 08:36:41;;;;;;;3.60;2.53;;;21.60;99.90;;;;;;4234564;27;20695;-76
2023/07/30 08:38:43;;;;;;;4.37;2.73;;;21.60;99.90;;;;;;4235098;27;20213;-75
2023/07/30 08:40:45;;;;;;;4.37;2.33;;;21.50;99.90;;;;;;4236198;27;20328;-76
2023/07/30 08:42:49;;;;;;;5.77;2.60;;;21.50;99.90;;;;;;4237126;27;20217;-76
2023/07/30 08:44:50;;;;;;;4.73;2.23;;;21.40;99.90;;;;;;4233875;27;20213;-75
2023/07/30 08:46:52;;;;;;;2.70;2.20;;;21.40;99.90;;;;;;4235762;27;20243;-76
2023/07/30 08:48:57;;;;;;;6.57;2.50;;;21.40;99.90;;;;;;4236734;27;20205;-76
2023/07/30 08:51:00;;;;;;;3.50;2.70;;;21.40;99.90;;;;;;4236498;28;20712;-75
2023/07/30 08:53:05;;;;;;;4.53;2.80;;;21.30;99.90;;;;;;4233495;27;20237;-76
2023/07/30 08:55:08;;;;;;;6.73;2.30;;;21.30;99.90;;;;;;4234470;28;20207;-75
2023/07/30 08:57:11;;;;;;;3.60;2.63;;;21.20;99.90;;;;;;4234455;28;20308;-75
2023/07/30 08:59:16;;;;;;;3.80;2.60;;;21.30;99.90;;;;;;4230974;28;20308;-76
2023/07/30 09:01:20;;;;;;;3.90;2.40;;;21.20;99.90;;;;;;4233366;28;20297;-75
2023/07/30 09:03:24;;;;;;;3.13;2.40;;;21.20;99.90;;;;;;4236325;28;20285;-76
2023/07/30 09:05:28;;;;;;;3.73;2.43;;;21.30;99.90;;;;;;4236478;28;20209;-76
2023/07/30 09:07:30;;;;;;;5.20;2.00;;;21.20;99.90;;;;;;4237118;28;20234;-76
2023/07/30 09:09:32;;;;;;;3.13;1.90;;;21.30;99.90;;;;;;4236423;28;20713;-76
2023/07/30 09:11:34;;;;;;;5.67;2.40;;;21.40;99.90;;;;;;4236585;28;20215;-76
2023/07/30 09:13:38;;;;;;;4.60;2.30;;;21.40;99.90;;;;;;4241585;28;20314;-76
2023/07/30 09:15:42;;;;;;;5.13;2.13;;;21.40;99.90;;;;;;4231949;28;20217;-76
2023/07/30 09:17:44;;;;;;;5.63;2.27;;;21.40;99.90;;;;;;4233684;28;20695;-76
2023/07/30 09:19:46;;;;;;;4.43;2.23;;;21.50;99.90;;;;;;4237587;28;20301;-77
2023/07/30 09:21:49;;;;;;;5.60;2.80;;;21.50;99.90;;;;;;4235680;28;20206;-76
2023/07/30 09:23:50;;;;;;;3.30;2.53;;;21.60;99.90;;;;;;4236214;28;20203;-77
2023/07/30 09:25:52;;;;;;;3.57;2.50;;;21.70;99.90;;;;;;4228999;28;20321;-76
2023/07/30 09:27:55;;;;;;;5.20;2.40;;;21.70;99.90;;;;;;4236018;28;20206;-76
2023/07/30 09:29:56;;;;;;;2.87;2.30;;;21.80;99.90;;;;;;4232915;28;20215;-76
2023/07/30 09:32:00;;;;;;;4.50;2.33;;;21.80;99.90;;;;;;4239081;27;20632;-76
2023/07/30 09:34:02;;;;;;;3.53;2.70;;;21.80;99.90;;;;;;4237810;27;20227;-77
2023/07/30 09:36:04;;;;;;;6.40;2.10;;;21.80;99.90;;;;;;4237466;27;20249;-76
2023/07/30 09:38:06;;;;;;;5.63;2.13;;;21.90;99.90;;;;;;4242798;27;20241;-77
2023/07/30 09:40:10;;;;;;;2.43;1.80;;;22.00;99.90;;;;;;4240709;27;20301;-76
2023/07/30 09:42:12;;;;;;;3.57;1.90;;;22.00;99.90;;;;;;4242708;27;20295;-77
2023/07/30 09:44:13;;;;;;;2.60;1.60;;;22.00;99.90;;;;;;4247440;27;20574;-77
2023/07/30 09:46:15;;;;;;;4.57;1.60;;;22.10;99.90;;;;;;4244279;27;20225;-76
2023/07/30 09:48:18;;;;;;;4.03;1.97;;;22.10;99.90;;;;;;4239905;27;20212;-76
2023/07/30 09:50:20;;;;;;;2.67;2.00;;;22.20;99.90;;;;;;4241704;27;20215;-76
2023/07/30 09:52:23;;;;;;;4.80;1.60;;;22.30;99.90;;;;;;4235866;27;20208;-76
2023/07/30 09:54:25;;;;;;;1.83;1.50;;;22.40;99.90;;;;;;4236026;27;20825;-77
2023/07/30 09:56:26;;;;;;;3.17;1.63;;;22.40;99.90;;;;;;4239429;27;20231;-76
2023/07/30 09:58:27;;;;;;;6.13;1.60;;;22.50;99.90;;;;;;4235777;27;20262;-77
2023/07/30 10:00:29;;;;;;;3.07;1.70;;;22.60;99.90;;;;;;4241494;27;20207;-77
2023/07/30 10:02:38;;;;;;;4.00;1.60;;;22.70;99.90;;;;;;4240310;27;20207;-76
2023/07/30 10:04:44;;;;;;;3.27;1.50;;;22.70;99.90;;;;;;4240792;27;20211;-76
2023/07/30 10:06:49;;;;;;;2.10;1.67;;;22.80;99.90;;;;;;4238719;27;20319;-76
2023/07/30 10:08:59;;;;;;;4.37;1.40;;;22.90;99.90;;;;;;4238372;27;20297;-76
2023/07/30 10:11:03;;;;;;;2.10;1.50;;;22.90;99.90;;;;;;4237410;27;20232;-76
2023/07/30 10:13:10;;;;;;;5.40;2.00;;;23.00;99.90;;;;;;4236768;27;20203;-76
2023/07/30 10:15:15;;;;;;;3.30;1.50;;;23.10;99.90;;;;;;4239846;27;20239;-76
2023/07/30 10:17:18;;;;;;;3.23;1.70;;;23.20;99.90;;;;;;4238447;27;20259;-76
2023/07/30 10:19:24;;;;;;;2.07;1.67;;;23.20;99.90;;;;;;4241542;27;20223;-76
2023/07/30 10:21:29;;;;;;;3.93;1.67;;;23.30;99.90;;;;;;4233247;27;20658;-76
2023/07/30 10:23:34;;;;;;;2.67;1.50;;;23.40;99.90;;;;;;4235067;27;20207;-76
2023/07/30 10:25:47;;;;;;;1.57;1.27;;;23.50;99.90;;;;;;4236453;27;20299;-76
2023/07/30 10:27:51;;;;;;;3.23;1.70;;;23.60;99.90;;;;;;4239021;27;20211;-77
2023/07/30 10:30:10;;;;;;;1.50;1.40;;;23.70;99.90;;;;;;4232834;27;20212;-76
2023/07/30 10:32:12;;;;;;;2.47;1.20;;;23.80;99.90;;;;;;4236140;27;20209;-76
2023/07/30 10:34:14;;;;;;;1.97;1.37;;;23.90;99.90;;;;;;4235835;27;20771;-76
2023/07/30 10:36:19;;;;;;;1.33;1.20;;;23.90;99.90;;;;;;4236102;27;20310;-76